sensor_id;sensor_type;location;lat;lon;timestamp;pressure;altitude;pressure_sealevel;temperature;humidity
48555;BME280;34336;48.270;16.716;2023-01-27T00:00:37;77783.28;;;18.16;98.50
48555;BME280;34336;48.270;16.716;2023-01-27T00:03:05;77773.66;;;18.16;98.55
48555;BME280;34336;48.270;16.716;2023-01-27T00:05:31;77779.44;;;18.16;99.17
48555;BME280;34336;48.270;16.716;2023-01-27T00:07:58;77773.66;;;18.16;99.37
48555;BME280;34336;48.270;16.716;2023-01-27T00:10:25;77775.59;;;18.16;98.84
48555;BME280;34336;48.270;16.716;2023-01-27T00:12:52;77777.50;;;18.16;99.25
48555;BME280;34336;48.270;16.716;2023-01-27T00:15:38;77775.59;;;18.16;99.17
48555;BME280;34336;48.270;16.716;2023-01-27T00:18:05;77777.50;;;18.16;99.62
48555;BME280;34336;48.270;16.716;2023-01-27T00:20:32;77775.59;;;18.16;99.50
48555;BME280;34336;48.270;16.716;2023-01-27T00:23:22;77771.72;;;18.16;99.89
48555;BME280;34336;48.270;16.716;2023-01-27T00:26:10;77777.50;;;18.16;99.40
48555;BME280;34336;48.270;16.716;2023-01-27T00:28:40;77777.50;;;18.16;99.61
48555;BME280;34336;48.270;16.716;2023-01-27T00:31:08;77779.44;;;18.16;99.71
48555;BME280;34336;48.270;16.716;2023-01-27T00:33:55;77781.38;;;18.16;99.07
48555;BME280;34336;48.270;16.716;2023-01-27T00:36:28;77785.22;;;18.16;98.63
48555;BME280;34336;48.270;16.716;2023-01-27T00:38:55;77781.38;;;18.16;98.66
48555;BME280;34336;48.270;16.716;2023-01-27T00:41:22;77773.66;;;18.16;98.82
48555;BME280;34336;48.270;16.716;2023-01-27T00:43:51;77789.06;;;18.16;98.55
48555;BME280;34336;48.270;16.716;2023-01-27T00:46:20;77777.50;;;18.16;98.39
48555;BME280;34336;48.270;16.716;2023-01-27T00:48:47;77789.06;;;18.16;98.20
48555;BME280;34336;48.270;16.716;2023-01-27T00:51:14;77785.22;;;18.16;98.32
48555;BME280;34336;48.270;16.716;2023-01-27T00:53:42;77792.94;;;18.16;98.25
48555;BME280;34336;48.270;16.716;2023-01-27T00:56:09;77791.00;;;18.16;97.97
48555;BME280;34336;48.270;16.716;2023-01-27T00:58:36;77791.00;;;18.16;97.83
48555;BME280;34336;48.270;16.716;2023-01-27T01:01:05;77794.88;;;18.16;96.84
48555;BME280;34336;48.270;16.716;2023-01-27T01:03:33;77796.78;;;18.16;95.85
48555;BME280;34336;48.270;16.716;2023-01-27T01:06:04;77791.00;;;18.16;95.04
48555;BME280;34336;48.270;16.716;2023-01-27T01:08:32;77792.94;;;18.16;95.42
48555;BME280;34336;48.270;16.716;2023-01-27T01:11:02;77792.94;;;18.16;95.36
48555;BME280;34336;48.270;16.716;2023-01-27T01:13:29;77794.88;;;18.16;94.86
48555;BME280;34336;48.270;16.716;2023-01-27T01:15:55;77796.78;;;18.16;95.57
48555;BME280;34336;48.270;16.716;2023-01-27T01:18:23;77794.88;;;18.16;95.38
48555;BME280;34336;48.270;16.716;2023-01-27T01:20:49;77791.00;;;18.16;95.84
48555;BME280;34336;48.270;16.716;2023-01-27T01:23:16;77792.94;;;18.16;96.23
48555;BME280;34336;48.270;16.716;2023-01-27T01:25:51;77785.22;;;18.16;97.13
48555;BME280;34336;48.270;16.716;2023-01-27T01:28:19;77789.06;;;18.16;97.00
48555;BME280;34336;48.270;16.716;2023-01-27T01:30:46;77792.94;;;18.16;96.73
48555;BME280;34336;48.270;16.716;2023-01-27T01:33:13;77785.22;;;18.16;97.23
48555;BME280;34336;48.270;16.716;2023-01-27T01:35:40;77783.28;;;18.16;96.93
48555;BME280;34336;48.270;16.716;2023-01-27T01:38:08;77781.38;;;18.16;96.83
48555;BME280;34336;48.270;16.716;2023-01-27T01:40:39;77781.38;;;18.16;97.01
48555;BME280;34336;48.270;16.716;2023-01-27T01:43:15;77779.44;;;18.16;98.19
48555;BME280;34336;48.270;16.716;2023-01-27T01:46:12;77775.59;;;18.16;98.30
48555;BME280;34336;48.270;16.716;2023-01-27T01:48:59;77769.81;;;18.16;98.44
48555;BME280;34336;48.270;16.716;2023-01-27T01:51:31;77775.59;;;18.16;98.98
48555;BME280;34336;48.270;16.716;2023-01-27T01:54:01;77777.50;;;18.16;99.87
48555;BME280;34336;48.270;16.716;2023-01-27T01:56:37;77767.88;;;18.16;100.00
48555;BME280;34336;48.270;16.716;2023-01-27T01:59:09;77767.88;;;18.16;100.00
48555;BME280;34336;48.270;16.716;2023-01-27T02:01:37;77762.09;;;18.16;100.00
48555;BME280;34336;48.270;16.716;2023-01-27T02:04:07;77765.94;;;18.16;100.00
48555;BME280;34336;48.270;16.716;2023-01-27T02:06:42;77765.94;;;18.16;100.00
48555;BME280;34336;48.270;16.716;2023-01-27T02:09:11;77762.09;;;18.16;100.00
48555;BME280;34336;48.270;16.716;2023-01-27T02:11:38;77767.88;;;18.16;100.00
48555;BME280;34336;48.270;16.716;2023-01-27T02:14:08;77765.94;;;18.16;100.00
48555;BME280;34336;48.270;16.716;2023-01-27T02:16:36;77758.22;;;18.16;100.00
48555;BME280;34336;48.270;16.716;2023-01-27T02:19:04;77762.09;;;18.16;100.00
48555;BME280;34336;48.270;16.716;2023-01-27T02:21:32;77756.31;;;18.16;100.00
48555;BME280;34336;48.270;16.716;2023-01-27T02:24:01;77760.16;;;18.16;100.00
48555;BME280;34336;48.270;16.716;2023-01-27T02:26:44;77754.38;;;18.16;100.00
48555;BME280;34336;48.270;16.716;2023-01-27T02:29:14;77754.38;;;18.16;100.00
48555;BME280;34336;48.270;16.716;2023-01-27T02:31:41;77758.22;;;18.16;100.00
48555;BME280;34336;48.270;16.716;2023-01-27T02:34:16;77754.38;;;18.16;100.00
48555;BME280;34336;48.270;16.716;2023-01-27T02:36:50;77758.22;;;18.16;100.00
48555;BME280;34336;48.270;16.716;2023-01-27T02:39:21;77758.22;;;18.16;100.00
48555;BME280;34336;48.270;16.716;2023-01-27T02:41:51;77750.53;;;18.16;100.00
48555;BME280;34336;48.270;16.716;2023-01-27T02:44:20;77746.66;;;18.16;100.00
48555;BME280;34336;48.270;16.716;2023-01-27T02:46:46;77748.59;;;18.16;100.00
48555;BME280;34336;48.270;16.716;2023-01-27T02:49:14;77742.81;;;18.16;100.00
48555;BME280;34336;48.270;16.716;2023-01-27T02:51:41;77748.59;;;18.16;100.00
48555;BME280;34336;48.270;16.716;2023-01-27T02:54:07;77754.38;;;18.16;100.00
48555;BME280;34336;48.270;16.716;2023-01-27T02:56:34;77754.38;;;18.16;100.00
48555;BME280;34336;48.270;16.716;2023-01-27T02:59:01;77750.53;;;18.16;100.00
48555;BME280;34336;48.270;16.716;2023-01-27T03:01:34;77750.53;;;18.16;100.00
48555;BME280;34336;48.270;16.716;2023-01-27T03:04:00;77752.44;;;18.16;100.00
48555;BME280;34336;48.270;16.716;2023-01-27T03:06:27;77746.66;;;18.16;100.00
48555;BME280;34336;48.270;16.716;2023-01-27T03:08:54;77748.59;;;18.16;100.00
48555;BME280;34336;48.270;16.716;2023-01-27T03:11:20;77750.53;;;18.16;100.00
48555;BME280;34336;48.270;16.716;2023-01-27T03:14:07;77756.31;;;18.16;100.00
48555;BME280;34336;48.270;16.716;2023-01-27T03:16:34;77754.38;;;18.16;100.00
48555;BME280;34336;48.270;16.716;2023-01-27T03:19:19;77746.66;;;18.16;100.00
48555;BME280;34336;48.270;16.716;2023-01-27T03:21:46;77750.53;;;18.16;99.65
48555;BME280;34336;48.270;16.716;2023-01-27T03:24:17;77738.97;;;18.16;98.85
48555;BME280;34336;48.270;16.716;2023-01-27T03:26:45;77742.81;;;18.16;98.25
48555;BME280;34336;48.270;16.716;2023-01-27T03:29:14;77746.66;;;18.16;97.67
48555;BME280;34336;48.270;16.716;2023-01-27T03:32:00;77742.81;;;18.16;96.18
48555;BME280;34336;48.270;16.716;2023-01-27T03:34:28;77746.66;;;18.16;96.67
48555;BME280;34336;48.270;16.716;2023-01-27T03:37:02;77750.53;;;18.16;96.07
48555;BME280;34336;48.270;16.716;2023-01-27T03:39:49;77744.75;;;18.16;96.41
48555;BME280;34336;48.270;16.716;2023-01-27T03:42:34;77742.81;;;18.16;95.30
48555;BME280;34336;48.270;16.716;2023-01-27T03:45:19;77742.81;;;18.16;94.98
48555;BME280;34336;48.270;16.716;2023-01-27T03:48:05;77746.66;;;18.16;95.39
48555;BME280;34336;48.270;16.716;2023-01-27T03:50:31;77750.53;;;18.16;95.94
48555;BME280;34336;48.270;16.716;2023-01-27T03:53:09;77744.75;;;18.16;95.80
48555;BME280;34336;48.270;16.716;2023-01-27T03:55:37;77742.81;;;18.16;95.86
48555;BME280;34336;48.270;16.716;2023-01-27T03:58:15;77742.81;;;18.16;95.88
48555;BME280;34336;48.270;16.716;2023-01-27T04:00:48;77742.81;;;18.16;95.79
48555;BME280;34336;48.270;16.716;2023-01-27T04:03:15;77737.03;;;18.16;96.18
48555;BME280;34336;48.270;16.716;2023-01-27T04:06:05;77742.81;;;18.16;97.12
48555;BME280;34336;48.270;16.716;2023-01-27T04:08:51;77735.09;;;18.16;96.03
48555;BME280;34336;48.270;16.716;2023-01-27T04:11:18;77735.09;;;18.16;96.97
48555;BME280;34336;48.270;16.716;2023-01-27T04:14:04;77740.88;;;18.16;96.91
48555;BME280;34336;48.270;16.716;2023-01-27T04:16:32;77737.03;;;18.16;96.79
48555;BME280;34336;48.270;16.716;2023-01-27T04:18:59;77738.97;;;18.16;97.35
48555;BME280;34336;48.270;16.716;2023-01-27T04:21:26;77733.19;;;18.16;97.39
48555;BME280;34336;48.270;16.716;2023-01-27T04:23:53;77738.97;;;18.16;97.49
48555;BME280;34336;48.270;16.716;2023-01-27T04:26:21;77738.97;;;18.16;97.54
48555;BME280;34336;48.270;16.716;2023-01-27T04:28:48;77748.59;;;18.16;97.05
48555;BME280;34336;48.270;16.716;2023-01-27T04:31:15;77748.59;;;18.16;97.24
48555;BME280;34336;48.270;16.716;2023-01-27T04:33:43;77742.81;;;18.16;97.00
48555;BME280;34336;48.270;16.716;2023-01-27T04:36:10;77742.81;;;18.16;96.83
48555;BME280;34336;48.270;16.716;2023-01-27T04:38:41;77742.81;;;18.16;96.42
48555;BME280;34336;48.270;16.716;2023-01-27T04:41:08;77742.81;;;18.16;96.42
48555;BME280;34336;48.270;16.716;2023-01-27T04:43:35;77750.53;;;18.16;96.39
48555;BME280;34336;48.270;16.716;2023-01-27T04:46:02;77750.53;;;18.16;95.83
48555;BME280;34336;48.270;16.716;2023-01-27T04:48:29;77744.75;;;18.16;95.70
48555;BME280;34336;48.270;16.716;2023-01-27T04:50:55;77744.75;;;18.16;95.03
48555;BME280;34336;48.270;16.716;2023-01-27T04:53:22;77742.81;;;18.16;95.44
48555;BME280;34336;48.270;16.716;2023-01-27T04:55:49;77738.97;;;18.16;95.57
48555;BME280;34336;48.270;16.716;2023-01-27T04:58:16;77750.53;;;18.16;94.69
48555;BME280;34336;48.270;16.716;2023-01-27T05:00:43;77742.81;;;18.16;95.64
48555;BME280;34336;48.270;16.716;2023-01-27T05:03:10;77742.81;;;18.16;95.61
48555;BME280;34336;48.270;16.716;2023-01-27T05:05:37;77746.66;;;18.16;95.30
48555;BME280;34336;48.270;16.716;2023-01-27T05:08:06;77744.75;;;18.16;96.20
48555;BME280;34336;48.270;16.716;2023-01-27T05:10:33;77742.81;;;18.16;96.47
48555;BME280;34336;48.270;16.716;2023-01-27T05:12:59;77742.81;;;18.16;97.13
48555;BME280;34336;48.270;16.716;2023-01-27T05:15:28;77746.66;;;18.16;97.05
48555;BME280;34336;48.270;16.716;2023-01-27T05:17:55;77756.31;;;18.16;97.23
48555;BME280;34336;48.270;16.716;2023-01-27T05:20:22;77750.53;;;18.16;97.92
48555;BME280;34336;48.270;16.716;2023-01-27T05:22:50;77750.53;;;18.16;98.49
48555;BME280;34336;48.270;16.716;2023-01-27T05:25:17;77758.22;;;18.16;98.14
48555;BME280;34336;48.270;16.716;2023-01-27T05:27:44;77758.22;;;18.16;97.92
48555;BME280;34336;48.270;16.716;2023-01-27T05:30:11;77758.22;;;18.16;97.30
48555;BME280;34336;48.270;16.716;2023-01-27T05:32:37;77760.16;;;18.16;97.08
48555;BME280;34336;48.270;16.716;2023-01-27T05:35:04;77756.31;;;18.16;96.51
48555;BME280;34336;48.270;16.716;2023-01-27T05:37:31;77760.16;;;18.16;96.18
48555;BME280;34336;48.270;16.716;2023-01-27T05:39:58;77758.22;;;18.16;95.40
48555;BME280;34336;48.270;16.716;2023-01-27T05:42:25;77758.22;;;18.16;96.00
48555;BME280;34336;48.270;16.716;2023-01-27T05:44:51;77762.09;;;18.16;96.11
48555;BME280;34336;48.270;16.716;2023-01-27T05:47:18;77754.38;;;18.16;96.50
48555;BME280;34336;48.270;16.716;2023-01-27T05:49:44;77754.38;;;18.16;96.41
48555;BME280;34336;48.270;16.716;2023-01-27T05:52:11;77758.22;;;18.16;95.82
48555;BME280;34336;48.270;16.716;2023-01-27T05:54:38;77760.16;;;18.16;95.94
48555;BME280;34336;48.270;16.716;2023-01-27T05:57:04;77765.94;;;18.16;95.38
48555;BME280;34336;48.270;16.716;2023-01-27T05:59:31;77765.94;;;18.16;95.57
48555;BME280;34336;48.270;16.716;2023-01-27T06:01:58;77765.94;;;18.16;95.62
48555;BME280;34336;48.270;16.716;2023-01-27T06:04:25;77769.81;;;18.16;94.55
48555;BME280;34336;48.270;16.716;2023-01-27T06:06:52;77762.09;;;18.16;94.37
48555;BME280;34336;48.270;16.716;2023-01-27T06:09:18;77762.09;;;18.16;94.46
48555;BME280;34336;48.270;16.716;2023-01-27T06:11:45;77762.09;;;18.16;93.49
48555;BME280;34336;48.270;16.716;2023-01-27T06:14:13;77765.94;;;18.16;93.49
48555;BME280;34336;48.270;16.716;2023-01-27T06:16:40;77765.94;;;18.16;93.98
48555;BME280;34336;48.270;16.716;2023-01-27T06:19:07;77764.03;;;18.16;93.74
48555;BME280;34336;48.270;16.716;2023-01-27T06:21:33;77754.38;;;18.16;93.02
48555;BME280;34336;48.270;16.716;2023-01-27T06:24:00;77762.09;;;18.16;93.15
48555;BME280;34336;48.270;16.716;2023-01-27T06:26:27;77762.09;;;18.16;93.87
48555;BME280;34336;48.270;16.716;2023-01-27T06:28:55;77762.09;;;18.16;93.17
48555;BME280;34336;48.270;16.716;2023-01-27T06:31:22;77754.38;;;18.16;93.20
48555;BME280;34336;48.270;16.716;2023-01-27T06:33:50;77764.03;;;18.16;93.38
48555;BME280;34336;48.270;16.716;2023-01-27T06:36:19;77765.94;;;18.16;93.82
48555;BME280;34336;48.270;16.716;2023-01-27T06:38:47;77765.94;;;18.16;93.65
48555;BME280;34336;48.270;16.716;2023-01-27T06:41:14;77769.81;;;18.16;93.42
48555;BME280;34336;48.270;16.716;2023-01-27T06:43:41;77765.94;;;18.16;92.91
48555;BME280;34336;48.270;16.716;2023-01-27T06:46:08;77758.22;;;18.16;93.40
48555;BME280;34336;48.270;16.716;2023-01-27T06:48:34;77758.22;;;18.16;92.61
48555;BME280;34336;48.270;16.716;2023-01-27T06:51:03;77752.44;;;18.16;92.65
48555;BME280;34336;48.270;16.716;2023-01-27T06:53:30;77762.09;;;18.16;92.44
48555;BME280;34336;48.270;16.716;2023-01-27T06:55:59;77754.38;;;18.16;92.67
48555;BME280;34336;48.270;16.716;2023-01-27T06:58:27;77754.38;;;18.16;92.37
48555;BME280;34336;48.270;16.716;2023-01-27T07:00:54;77754.38;;;18.16;92.08
48555;BME280;34336;48.270;16.716;2023-01-27T07:03:21;77758.22;;;18.16;91.50
48555;BME280;34336;48.270;16.716;2023-01-27T07:05:48;77758.22;;;18.16;90.05
48555;BME280;34336;48.270;16.716;2023-01-27T07:08:15;77765.94;;;18.16;89.49
48555;BME280;34336;48.270;16.716;2023-01-27T07:10:42;77760.16;;;18.16;88.69
48555;BME280;34336;48.270;16.716;2023-01-27T07:13:10;77762.09;;;18.16;87.59
48555;BME280;34336;48.270;16.716;2023-01-27T07:15:38;77762.09;;;18.16;87.32
48555;BME280;34336;48.270;16.716;2023-01-27T07:18:05;77760.16;;;18.16;87.51
48555;BME280;34336;48.270;16.716;2023-01-27T07:20:32;77764.03;;;18.16;86.95
48555;BME280;34336;48.270;16.716;2023-01-27T07:23:01;77762.09;;;18.16;87.67
48555;BME280;34336;48.270;16.716;2023-01-27T07:25:30;77765.94;;;18.16;87.49
48555;BME280;34336;48.270;16.716;2023-01-27T07:27:57;77771.72;;;18.16;86.85
48555;BME280;34336;48.270;16.716;2023-01-27T07:30:26;77762.09;;;18.16;87.22
48555;BME280;34336;48.270;16.716;2023-01-27T07:32:53;77760.16;;;18.16;86.84
48555;BME280;34336;48.270;16.716;2023-01-27T07:35:21;77754.38;;;18.16;85.52
48555;BME280;34336;48.270;16.716;2023-01-27T07:37:48;77754.38;;;18.16;85.64
48555;BME280;34336;48.270;16.716;2023-01-27T07:40:15;77748.59;;;18.16;85.67
48555;BME280;34336;48.270;16.716;2023-01-27T07:42:42;77750.53;;;18.16;85.32
48555;BME280;34336;48.270;16.716;2023-01-27T07:45:09;77746.66;;;18.16;84.36
48555;BME280;34336;48.270;16.716;2023-01-27T07:47:36;77746.66;;;18.16;83.66
48555;BME280;34336;48.270;16.716;2023-01-27T07:50:03;77742.81;;;18.16;82.78
48555;BME280;34336;48.270;16.716;2023-01-27T07:52:29;77735.09;;;18.16;82.73
48555;BME280;34336;48.270;16.716;2023-01-27T07:54:56;77733.19;;;18.16;82.91
48555;BME280;34336;48.270;16.716;2023-01-27T07:57:23;77719.69;;;18.16;82.83
48555;BME280;34336;48.270;16.716;2023-01-27T07:59:49;77715.81;;;18.16;83.00
48555;BME280;34336;48.270;16.716;2023-01-27T08:02:22;77719.69;;;18.16;82.44
48555;BME280;34336;48.270;16.716;2023-01-27T08:04:49;77719.69;;;18.16;82.21
48555;BME280;34336;48.270;16.716;2023-01-27T08:07:23;77733.19;;;18.16;81.71
48555;BME280;34336;48.270;16.716;2023-01-27T08:09:50;77723.53;;;18.16;81.73
48555;BME280;34336;48.270;16.716;2023-01-27T08:12:19;77721.59;;;18.16;81.83
48555;BME280;34336;48.270;16.716;2023-01-27T08:14:46;77725.47;;;18.16;82.02
48555;BME280;34336;48.270;16.716;2023-01-27T08:17:13;77719.69;;;18.16;82.13
48555;BME280;34336;48.270;16.716;2023-01-27T08:19:39;77723.53;;;18.16;81.33
48555;BME280;34336;48.270;16.716;2023-01-27T08:22:06;77727.38;;;18.16;81.64
48555;BME280;34336;48.270;16.716;2023-01-27T08:24:33;77731.25;;;18.16;81.67
48555;BME280;34336;48.270;16.716;2023-01-27T08:26:59;77729.31;;;18.16;81.21
48555;BME280;34336;48.270;16.716;2023-01-27T08:29:26;77719.69;;;18.16;80.07
48555;BME280;34336;48.270;16.716;2023-01-27T08:31:54;77731.25;;;18.16;80.36
48555;BME280;34336;48.270;16.716;2023-01-27T08:34:21;77731.25;;;18.16;80.03
48555;BME280;34336;48.270;16.716;2023-01-27T08:36:48;77727.38;;;18.16;79.21
48555;BME280;34336;48.270;16.716;2023-01-27T08:39:14;77731.25;;;18.16;80.17
48555;BME280;34336;48.270;16.716;2023-01-27T08:41:41;77717.75;;;18.16;79.82
48555;BME280;34336;48.270;16.716;2023-01-27T08:44:08;77727.38;;;18.16;79.19
48555;BME280;34336;48.270;16.716;2023-01-27T08:46:34;77723.53;;;18.16;78.47
48555;BME280;34336;48.270;16.716;2023-01-27T08:49:01;77735.09;;;18.16;79.27
48555;BME280;34336;48.270;16.716;2023-01-27T08:51:28;77737.03;;;18.16;79.07
48555;BME280;34336;48.270;16.716;2023-01-27T08:53:55;77727.38;;;18.16;79.65
48555;BME280;34336;48.270;16.716;2023-01-27T08:56:21;77735.09;;;18.16;80.52
48555;BME280;34336;48.270;16.716;2023-01-27T08:58:49;77719.69;;;18.16;80.64
48555;BME280;34336;48.270;16.716;2023-01-27T09:01:18;77727.38;;;18.16;80.54
48555;BME280;34336;48.270;16.716;2023-01-27T09:03:45;77723.53;;;18.16;80.75
48555;BME280;34336;48.270;16.716;2023-01-27T09:06:12;77711.97;;;18.16;80.76
48555;BME280;34336;48.270;16.716;2023-01-27T09:08:40;77719.69;;;18.16;81.20
48555;BME280;34336;48.270;16.716;2023-01-27T09:11:12;77721.59;;;18.16;80.26
48555;BME280;34336;48.270;16.716;2023-01-27T09:13:39;77715.81;;;18.16;80.15
48555;BME280;34336;48.270;16.716;2023-01-27T09:16:06;77702.34;;;18.16;80.48
48555;BME280;34336;48.270;16.716;2023-01-27T09:18:34;77710.03;;;18.16;80.93
48555;BME280;34336;48.270;16.716;2023-01-27T09:21:04;77704.25;;;18.16;80.67
48555;BME280;34336;48.270;16.716;2023-01-27T09:23:32;77706.19;;;18.16;80.37
48555;BME280;34336;48.270;16.716;2023-01-27T09:25:59;77700.41;;;18.16;80.56
48555;BME280;34336;48.270;16.716;2023-01-27T09:28:26;77692.69;;;18.16;79.99
48555;BME280;34336;48.270;16.716;2023-01-27T09:30:56;77700.41;;;18.16;79.24
48555;BME280;34336;48.270;16.716;2023-01-27T09:33:23;77696.53;;;18.16;79.39
48555;BME280;34336;48.270;16.716;2023-01-27T09:36:11;77696.53;;;18.16;79.30
48555;BME280;34336;48.270;16.716;2023-01-27T09:38:53;77696.53;;;18.16;78.89
48555;BME280;34336;48.270;16.716;2023-01-27T09:47:37;77698.47;;;18.16;78.31
48555;BME280;34336;48.270;16.716;2023-01-27T09:50:42;77686.91;;;18.16;78.11
48555;BME280;34336;48.270;16.716;2023-01-27T09:56:11;77646.44;;;18.16;77.62
48555;BME280;34336;48.270;16.716;2023-01-27T10:12:05;77600.16;;;18.16;76.13
48555;BME280;34336;48.270;16.716;2023-01-27T10:20:24;77607.88;;;18.16;75.74
48555;BME280;34336;48.270;16.716;2023-01-27T10:23:08;77596.31;;;18.16;75.11
48555;BME280;34336;48.270;16.716;2023-01-27T10:28:42;77584.75;;;18.16;74.66
48555;BME280;34336;48.270;16.716;2023-01-27T10:31:21;77577.03;;;18.16;74.02
48555;BME280;34336;48.270;16.716;2023-01-27T10:33:56;77577.03;;;18.16;73.47
48555;BME280;34336;48.270;16.716;2023-01-27T10:36:28;77592.47;;;18.16;74.20
48555;BME280;34336;48.270;16.716;2023-01-27T10:39:10;77592.47;;;18.16;74.04
48555;BME280;34336;48.270;16.716;2023-01-27T10:44:56;77604.03;;;18.16;73.75
48555;BME280;34336;48.270;16.716;2023-01-27T10:50:22;77604.03;;;18.16;74.44
48555;BME280;34336;48.270;16.716;2023-01-27T10:55:23;77600.16;;;18.16;74.43
48555;BME280;34336;48.270;16.716;2023-01-27T10:57:59;77600.16;;;18.16;74.02
48555;BME280;34336;48.270;16.716;2023-01-27T11:00:45;77592.47;;;18.16;73.78
48555;BME280;34336;48.270;16.716;2023-01-27T11:03:40;77600.16;;;18.16;74.63
48555;BME280;34336;48.270;16.716;2023-01-27T11:06:18;77592.47;;;18.16;74.60
48555;BME280;34336;48.270;16.716;2023-01-27T11:08:51;77588.59;;;18.16;74.04
48555;BME280;34336;48.270;16.716;2023-01-27T11:11:20;77596.31;;;18.16;74.28
48555;BME280;34336;48.270;16.716;2023-01-27T11:16:50;77596.31;;;18.16;73.22
48555;BME280;34336;48.270;16.716;2023-01-27T11:19:25;77600.16;;;18.16;73.89
48555;BME280;34336;48.270;16.716;2023-01-27T11:21:54;77588.59;;;18.16;73.38
48555;BME280;34336;48.270;16.716;2023-01-27T11:27:10;77584.75;;;18.16;72.78
48555;BME280;34336;48.270;16.716;2023-01-27T11:29:42;77592.47;;;18.16;72.75
48555;BME280;34336;48.270;16.716;2023-01-27T11:37:26;77584.75;;;18.16;73.00
48555;BME280;34336;48.270;16.716;2023-01-27T11:39:55;77600.16;;;18.16;73.22
48555;BME280;34336;48.270;16.716;2023-01-27T11:42:23;77584.75;;;18.16;73.19
48555;BME280;34336;48.270;16.716;2023-01-27T11:44:54;77588.59;;;18.16;72.93
48555;BME280;34336;48.270;16.716;2023-01-27T11:47:35;77557.75;;;18.16;73.03
48555;BME280;34336;48.270;16.716;2023-01-27T11:50:03;77555.84;;;18.16;73.88
48555;BME280;34336;48.270;16.716;2023-01-27T11:52:30;77550.06;;;18.16;73.34
48555;BME280;34336;48.270;16.716;2023-01-27T11:55:05;77551.97;;;18.16;73.02
48555;BME280;34336;48.270;16.716;2023-01-27T11:57:32;77551.97;;;18.16;72.43
48555;BME280;34336;48.270;16.716;2023-01-27T12:00:25;77546.19;;;18.16;72.00
48555;BME280;34336;48.270;16.716;2023-01-27T12:03:04;77538.47;;;18.16;72.27
48555;BME280;34336;48.270;16.716;2023-01-27T12:05:35;77546.19;;;18.16;72.26
48555;BME280;34336;48.270;16.716;2023-01-27T12:08:05;77551.97;;;18.16;71.68
48555;BME280;34336;48.270;16.716;2023-01-27T12:10:39;77557.75;;;18.16;71.54
48555;BME280;34336;48.270;16.716;2023-01-27T12:13:20;77542.34;;;18.16;71.38
48555;BME280;34336;48.270;16.716;2023-01-27T12:15:59;77534.63;;;18.16;70.92
48555;BME280;34336;48.270;16.716;2023-01-27T12:18:31;77536.56;;;18.16;70.88
48555;BME280;34336;48.270;16.716;2023-01-27T12:21:01;77523.06;;;18.16;70.86
48555;BME280;34336;48.270;16.716;2023-01-27T12:23:31;77521.13;;;18.16;71.44
48555;BME280;34336;48.270;16.716;2023-01-27T12:26:04;77519.22;;;18.16;71.11
48555;BME280;34336;48.270;16.716;2023-01-27T12:28:39;77511.50;;;18.16;70.36
48555;BME280;34336;48.270;16.716;2023-01-27T12:31:26;77515.34;;;18.16;69.48
48555;BME280;34336;48.270;16.716;2023-01-27T12:34:04;77519.22;;;18.16;69.21
48555;BME280;34336;48.270;16.716;2023-01-27T12:36:38;77507.66;;;18.16;70.34
48555;BME280;34336;48.270;16.716;2023-01-27T12:39:25;77517.28;;;18.16;70.72
48555;BME280;34336;48.270;16.716;2023-01-27T12:41:54;77532.69;;;18.16;70.52
48555;BME280;34336;48.270;16.716;2023-01-27T12:44:20;77532.69;;;18.16;70.91
48555;BME280;34336;48.270;16.716;2023-01-27T12:47:03;77526.91;;;18.16;70.96
48555;BME280;34336;48.270;16.716;2023-01-27T12:49:33;77523.06;;;18.16;70.99
48555;BME280;34336;48.270;16.716;2023-01-27T12:52:02;77515.34;;;18.16;69.99
48555;BME280;34336;48.270;16.716;2023-01-27T12:54:31;77511.50;;;18.16;69.43
48555;BME280;34336;48.270;16.716;2023-01-27T12:57:09;77526.91;;;18.16;69.27
48555;BME280;34336;48.270;16.716;2023-01-27T12:59:46;77519.22;;;18.16;68.50
48555;BME280;34336;48.270;16.716;2023-01-27T13:02:30;77530.78;;;18.16;68.69
48555;BME280;34336;48.270;16.716;2023-01-27T13:05:00;77534.63;;;18.16;69.19
48555;BME280;34336;48.270;16.716;2023-01-27T13:07:42;77542.34;;;18.16;68.09
48555;BME280;34336;48.270;16.716;2023-01-27T13:10:18;77538.47;;;18.16;69.11
48555;BME280;34336;48.270;16.716;2023-01-27T13:12:51;77538.47;;;18.16;67.52
48555;BME280;34336;48.270;16.716;2023-01-27T13:15:21;77538.47;;;18.16;67.97
48555;BME280;34336;48.270;16.716;2023-01-27T13:17:58;77557.75;;;18.16;68.52
48555;BME280;34336;48.270;16.716;2023-01-27T13:28:19;77621.38;;;18.16;72.43
48555;BME280;34336;48.270;16.716;2023-01-27T13:30:50;77627.16;;;18.16;73.21
48555;BME280;34336;48.270;16.716;2023-01-27T13:36:26;77632.94;;;18.16;72.09
48555;BME280;34336;48.270;16.716;2023-01-27T13:39:16;77631.00;;;18.16;72.23
48555;BME280;34336;48.270;16.716;2023-01-27T13:47:55;77669.56;;;18.16;72.87
48555;BME280;34336;48.270;16.716;2023-01-27T13:50:29;77675.34;;;18.16;73.39
48555;BME280;34336;48.270;16.716;2023-01-27T13:52:59;77679.19;;;18.16;74.15
48555;BME280;34336;48.270;16.716;2023-01-27T13:55:37;77677.28;;;18.16;75.32
48555;BME280;34336;48.270;16.716;2023-01-27T14:09:37;77731.25;;;18.16;79.93
48555;BME280;34336;48.270;16.716;2023-01-27T14:12:13;77723.53;;;18.16;79.20
48555;BME280;34336;48.270;16.716;2023-01-27T14:14:54;77729.31;;;18.16;80.01
48555;BME280;34336;48.270;16.716;2023-01-27T14:17:34;77737.03;;;18.16;80.30
48555;BME280;34336;48.270;16.716;2023-01-27T14:22:51;77746.66;;;18.16;79.56
48555;BME280;34336;48.270;16.716;2023-01-27T14:25:38;77762.09;;;18.16;80.31
48555;BME280;34336;48.270;16.716;2023-01-27T14:28:34;77775.59;;;18.16;81.31